Maersk Constellation — WRYJ — position and weather

sailwx.info

Track history (hours):
 
Tides and Currents Weather Stations Pressure Air Temp Water Temp Dewpoint Dewpoint Depression Visibility Wind Speed Wind Dir Waves Ship Positions

Maersk Constellation

Owner: MAERSK LINES LIMITED, Norfolk, VA. More information available from US FCC via Universal Licensing System and Coast Guard Vessel Documentation Center.

Last reported at 2016-Feb-09 04:29 UTC. Time now 2016-Feb-09 11:53 UTC.
Position N 18°23' W 064°42'.

Type: Cargo ship. MMSI: 367477000.

Date/timePositionNaut miles runAvg speedWind from/ knotsBaromVisibWave heightAir tempDewpointWater temp
2016-Feb-09 04:29N 18°23' W 064°42'0 0.0
2016-Feb-09 03:29N 18°23' W 064°42'0 0.0
2016-Feb-09 02:29N 18°23' W 064°42'0 0.0
2016-Feb-09 01:17N 18°23' W 064°42'0 0.0
2016-Feb-09 00:23N 18°23' W 064°42'0 0.0
2016-Feb-08 23:29N 18°23' W 064°42'0 0.0
2016-Feb-08 22:23N 18°23' W 064°42'0 0.0
2016-Feb-08 21:23N 18°23' W 064°42'0 0.0
2016-Feb-08 20:23N 18°23' W 064°42'0 0.0
2016-Feb-08 19:29N 18°23' W 064°42'0 0.0
2016-Feb-08 18:29N 18°23' W 064°42'0 0.0
2016-Feb-08 17:23N 18°23' W 064°42'0 0.0
2016-Feb-08 16:29N 18°23' W 064°42'0 0.0
2016-Feb-08 15:33N 18°23' W 064°42'3 2.6
2016-Feb-08 14:33N 18°25' W 064°44'1 0.0
2016-Feb-07 04:21N 18°26' W 064°44'0 0.0
2016-Feb-07 02:15N 18°26' W 064°44'4 0.3
2016-Feb-06 13:09N 18°23' W 064°42'0 0.0
2016-Feb-06 12:15N 18°23' W 064°42'0 0.0
2016-Feb-06 11:33N 18°23' W 064°42'0 0.0
2016-Feb-06 10:33N 18°23' W 064°42'0 0.0
2016-Feb-06 09:33N 18°23' W 064°42'0 0.0
2016-Feb-06 08:27N 18°23' W 064°42'0 0.0
2016-Feb-06 07:33N 18°23' W 064°42'0 0.0
2016-Feb-06 06:27N 18°23' W 064°42'0 0.0
2016-Feb-06 05:33N 18°23' W 064°42'0 0.0
2016-Feb-06 04:27N 18°23' W 064°42'0 0.0
2016-Feb-06 03:33N 18°23' W 064°42'0 0.0
2016-Feb-06 02:33N 18°23' W 064°42'0 0.0
2016-Feb-06 01:33N 18°23' W 064°42'0 0.0
2016-Feb-05 23:31N 18°23' W 064°42'0 0.0
2016-Feb-05 22:31N 18°23' W 064°42'0 0.0
2016-Feb-05 21:31N 18°23' W 064°42'0 0.0
2016-Feb-05 20:25N 18°23' W 064°42'0 0.0
2016-Feb-05 19:31N 18°23' W 064°42'0 0.0
2016-Feb-05 18:31N 18°23' W 064°42'0 0.0
2016-Feb-05 17:31N 18°23' W 064°42'0 0.0
2016-Feb-05 16:25N 18°23' W 064°42'0 0.0
2016-Feb-05 15:31N 18°23' W 064°42'0 0.0
2016-Feb-05 13:25N 18°23' W 064°42'0 0.0
2016-Feb-05 12:31N 18°23' W 064°42'0 0.0
2016-Feb-05 11:31N 18°23' W 064°42'0 0.0
2016-Feb-05 10:31N 18°23' W 064°42'0 0.0
2016-Feb-05 09:31N 18°23' W 064°42'0 0.0
2016-Feb-05 08:24N 18°23' W 064°42'0 0.0
2016-Feb-05 07:30N 18°23' W 064°42'0 0.0
2016-Feb-05 06:18N 18°23' W 064°42'0 0.0
2016-Feb-05 05:12N 18°23' W 064°42'0 0.0
2016-Feb-05 04:30N 18°23' W 064°42'0 0.0
2016-Feb-05 03:12N 18°23' W 064°42'0 0.0
2016-Feb-05 02:30N 18°23' W 064°42'0 0.0
2016-Feb-05 01:12N 18°23' W 064°42'0 0.0
2016-Feb-05 00:30N 18°23' W 064°42'0 0.0
2016-Feb-04 23:30N 18°23' W 064°42'0 0.0
2016-Feb-04 22:24N 18°23' W 064°42'0 0.0
2016-Feb-04 21:30N 18°23' W 064°42'0 0.0
2016-Feb-04 20:30N 18°23' W 064°42'0 0.1
2016-Feb-04 19:20N 18°23' W 064°42'2 2.4
2016-Feb-04 18:33N 18°22' W 064°40'7 6.4
2016-Feb-04 17:29N 18°23' W 064°33'6 0.1
2016-Feb-02 14:18N 18°26' W 064°27'5 7.2
2016-Feb-02 13:33N 18°24' W 064°33'8 7.5
2016-Feb-02 12:33N 18°23' W 064°41'2 1.6
2016-Feb-02 11:31N 18°23' W 064°42'0 0.0
2016-Feb-02 10:31N 18°23' W 064°42'0 0.0
2016-Feb-02 09:31N 18°23' W 064°42'0 0.0
2016-Feb-02 08:31N 18°23' W 064°42'0 0.0
2016-Feb-02 07:31N 18°23' W 064°42'0 0.0
2016-Feb-02 05:13N 18°23' W 064°42'0 0.0
2016-Feb-02 04:25N 18°23' W 064°42'0 0.0
2016-Feb-02 03:31N 18°23' W 064°42'0 0.0
2016-Feb-02 02:25N 18°23' W 064°42'0 0.0
2016-Feb-02 01:31N 18°23' W 064°42'0 0.0
2016-Feb-02 00:25N 18°23' W 064°42'0 0.0
2016-Feb-01 23:31N 18°23' W 064°42'0 0.0
2016-Feb-01 22:31N 18°23' W 064°42'0 0.0
2016-Feb-01 21:31N 18°23' W 064°42'0 0.0
2016-Feb-01 20:19N 18°23' W 064°42'0 0.0
2016-Feb-01 19:25N 18°23' W 064°42'0 0.0
2016-Feb-01 18:19N 18°23' W 064°42'0 0.0
2016-Feb-01 17:25N 18°23' W 064°42'0 0.0
2016-Feb-01 14:31N 18°23' W 064°42'0 0.0
2016-Feb-01 13:31N 18°23' W 064°42'0 0.0
2016-Feb-01 12:31N 18°23' W 064°42'0 0.0
2016-Feb-01 11:31N 18°23' W 064°42'0 0.0
2016-Feb-01 10:31N 18°23' W 064°42'0 0.0
2016-Feb-01 09:31N 18°23' W 064°42'0 0.0
2016-Feb-01 07:31N 18°23' W 064°42'0 0.0
2016-Feb-01 05:31N 18°23' W 064°42'0 0.0
2016-Feb-01 03:13N 18°23' W 064°42'0 0.0
2016-Feb-01 02:31N 18°23' W 064°42'0 0.0
2016-Feb-01 01:25N 18°23' W 064°42'0 0.0
2016-Feb-01 00:31N 18°23' W 064°42'0 0.0
2016-Jan-31 23:31N 18°23' W 064°42'0 0.0
2016-Jan-31 22:31N 18°23' W 064°42'0 0.0
2016-Jan-31 21:25N 18°23' W 064°42'0 0.0
2016-Jan-31 20:25N 18°23' W 064°42'3 3.0
2016-Jan-31 19:33N 18°23' W 064°45'3 3.0
2016-Jan-31 18:29N 18°21' W 064°48'0 0.0
2016-Jan-31 17:29N 18°21' W 064°48'0 0.0
2016-Jan-31 16:23N 18°21' W 064°48'0 0.0
2016-Jan-31 15:33N 18°21' W 064°48'3 0.7
2016-Jan-31 11:20N 18°20' W 064°51'0 0.0
2016-Jan-31 10:32N 18°20' W 064°51'0 0.0
2016-Jan-31 09:32N 18°20' W 064°51'0 0.0
2016-Jan-31 08:32N 18°20' W 064°51'0 0.0
2016-Jan-31 05:32N 18°20' W 064°51'0 0.0
2016-Jan-31 04:20N 18°20' W 064°51'0 0.0
2016-Jan-31 03:32N 18°20' W 064°51'0 0.0
2016-Jan-31 02:32N 18°20' W 064°51'0 0.0
2016-Jan-31 01:20N 18°20' W 064°51'0 0.0
2016-Jan-31 00:20N 18°20' W 064°51'0 0.0
2016-Jan-30 23:26N 18°20' W 064°51'0 0.0
2016-Jan-30 22:08N 18°20' W 064°51'  
Track history (hours):
 
Tides and Currents Weather Stations Pressure Air Temp Water Temp Dewpoint Dewpoint Depression Visibility Wind Speed Wind Dir Waves Ship Positions

Maersk Constellation

Owner: MAERSK LINES LIMITED, Norfolk, VA. More information available from US FCC via Universal Licensing System and Coast Guard Vessel Documentation Center.

Last reported at 2016-Feb-09 04:29 UTC. Time now 2016-Feb-09 11:53 UTC.
Position N 18°23' W 064°42'.

Type: Cargo ship. MMSI: 367477000.

Date/timePositionNaut miles runAvg speedWind from/ knotsBaromVisibWave heightAir tempDewpointWater temp
2016-Feb-09 04:29N 18°23' W 064°42'0 0.0
2016-Feb-09 03:29N 18°23' W 064°42'0 0.0
2016-Feb-09 02:29N 18°23' W 064°42'0 0.0
2016-Feb-09 01:17N 18°23' W 064°42'0 0.0
2016-Feb-09 00:23N 18°23' W 064°42'0 0.0
2016-Feb-08 23:29N 18°23' W 064°42'0 0.0
2016-Feb-08 22:23N 18°23' W 064°42'0 0.0
2016-Feb-08 21:23N 18°23' W 064°42'0 0.0
2016-Feb-08 20:23N 18°23' W 064°42'0 0.0
2016-Feb-08 19:29N 18°23' W 064°42'0 0.0
2016-Feb-08 18:29N 18°23' W 064°42'0 0.0
2016-Feb-08 17:23N 18°23' W 064°42'0 0.0
2016-Feb-08 16:29N 18°23' W 064°42'0 0.0
2016-Feb-08 15:33N 18°23' W 064°42'3 2.6
2016-Feb-08 14:33N 18°25' W 064°44'1 0.0
2016-Feb-07 04:21N 18°26' W 064°44'0 0.0
2016-Feb-07 02:15N 18°26' W 064°44'4 0.3
2016-Feb-06 13:09N 18°23' W 064°42'0 0.0
2016-Feb-06 12:15N 18°23' W 064°42'0 0.0
2016-Feb-06 11:33N 18°23' W 064°42'0 0.0
2016-Feb-06 10:33N 18°23' W 064°42'0 0.0
2016-Feb-06 09:33N 18°23' W 064°42'0 0.0
2016-Feb-06 08:27N 18°23' W 064°42'0 0.0
2016-Feb-06 07:33N 18°23' W 064°42'0 0.0
2016-Feb-06 06:27N 18°23' W 064°42'0 0.0
2016-Feb-06 05:33N 18°23' W 064°42'0 0.0
2016-Feb-06 04:27N 18°23' W 064°42'0 0.0
2016-Feb-06 03:33N 18°23' W 064°42'0 0.0
2016-Feb-06 02:33N 18°23' W 064°42'0 0.0
2016-Feb-06 01:33N 18°23' W 064°42'0 0.0
2016-Feb-05 23:31N 18°23' W 064°42'0 0.0
2016-Feb-05 22:31N 18°23' W 064°42'0 0.0
2016-Feb-05 21:31N 18°23' W 064°42'0 0.0
2016-Feb-05 20:25N 18°23' W 064°42'0 0.0
2016-Feb-05 19:31N 18°23' W 064°42'0 0.0
2016-Feb-05 18:31N 18°23' W 064°42'0 0.0
2016-Feb-05 17:31N 18°23' W 064°42'0 0.0
2016-Feb-05 16:25N 18°23' W 064°42'0 0.0
2016-Feb-05 15:31N 18°23' W 064°42'0 0.0
2016-Feb-05 13:25N 18°23' W 064°42'0 0.0
2016-Feb-05 12:31N 18°23' W 064°42'0 0.0
2016-Feb-05 11:31N 18°23' W 064°42'0 0.0
2016-Feb-05 10:31N 18°23' W 064°42'0 0.0
2016-Feb-05 09:31N 18°23' W 064°42'0 0.0
2016-Feb-05 08:24N 18°23' W 064°42'0 0.0
2016-Feb-05 07:30N 18°23' W 064°42'0 0.0
2016-Feb-05 06:18N 18°23' W 064°42'0 0.0
2016-Feb-05 05:12N 18°23' W 064°42'0 0.0
2016-Feb-05 04:30N 18°23' W 064°42'0 0.0
2016-Feb-05 03:12N 18°23' W 064°42'0 0.0
2016-Feb-05 02:30N 18°23' W 064°42'0 0.0
2016-Feb-05 01:12N 18°23' W 064°42'0 0.0
2016-Feb-05 00:30N 18°23' W 064°42'0 0.0
2016-Feb-04 23:30N 18°23' W 064°42'0 0.0
2016-Feb-04 22:24N 18°23' W 064°42'0 0.0
2016-Feb-04 21:30N 18°23' W 064°42'0 0.0
2016-Feb-04 20:30N 18°23' W 064°42'0 0.1
2016-Feb-04 19:20N 18°23' W 064°42'2 2.4
2016-Feb-04 18:33N 18°22' W 064°40'7 6.4
2016-Feb-04 17:29N 18°23' W 064°33'6 0.1
2016-Feb-02 14:18N 18°26' W 064°27'5 7.2
2016-Feb-02 13:33N 18°24' W 064°33'8 7.5
2016-Feb-02 12:33N 18°23' W 064°41'2 1.6
2016-Feb-02 11:31N 18°23' W 064°42'0 0.0
2016-Feb-02 10:31N 18°23' W 064°42'0 0.0
2016-Feb-02 09:31N 18°23' W 064°42'0 0.0
2016-Feb-02 08:31N 18°23' W 064°42'0 0.0
2016-Feb-02 07:31N 18°23' W 064°42'0 0.0
2016-Feb-02 05:13N 18°23' W 064°42'0 0.0
2016-Feb-02 04:25N 18°23' W 064°42'0 0.0
2016-Feb-02 03:31N 18°23' W 064°42'0 0.0
2016-Feb-02 02:25N 18°23' W 064°42'0 0.0
2016-Feb-02 01:31N 18°23' W 064°42'0 0.0
2016-Feb-02 00:25N 18°23' W 064°42'0 0.0
2016-Feb-01 23:31N 18°23' W 064°42'0 0.0
2016-Feb-01 22:31N 18°23' W 064°42'0 0.0
2016-Feb-01 21:31N 18°23' W 064°42'0 0.0
2016-Feb-01 20:19N 18°23' W 064°42'0 0.0
2016-Feb-01 19:25N 18°23' W 064°42'0 0.0
2016-Feb-01 18:19N 18°23' W 064°42'0 0.0
2016-Feb-01 17:25N 18°23' W 064°42'0 0.0
2016-Feb-01 14:31N 18°23' W 064°42'0 0.0
2016-Feb-01 13:31N 18°23' W 064°42'0 0.0
2016-Feb-01 12:31N 18°23' W 064°42'0 0.0
2016-Feb-01 11:31N 18°23' W 064°42'0 0.0
2016-Feb-01 10:31N 18°23' W 064°42'0 0.0
2016-Feb-01 09:31N 18°23' W 064°42'0 0.0
2016-Feb-01 07:31N 18°23' W 064°42'0 0.0
2016-Feb-01 05:31N 18°23' W 064°42'0 0.0
2016-Feb-01 03:13N 18°23' W 064°42'0 0.0
2016-Feb-01 02:31N 18°23' W 064°42'0 0.0
2016-Feb-01 01:25N 18°23' W 064°42'0 0.0
2016-Feb-01 00:31N 18°23' W 064°42'0 0.0
2016-Jan-31 23:31N 18°23' W 064°42'0 0.0
2016-Jan-31 22:31N 18°23' W 064°42'0 0.0
2016-Jan-31 21:25N 18°23' W 064°42'0 0.0
2016-Jan-31 20:25N 18°23' W 064°42'3 3.0
2016-Jan-31 19:33N 18°23' W 064°45'3 3.0
2016-Jan-31 18:29N 18°21' W 064°48'0 0.0
2016-Jan-31 17:29N 18°21' W 064°48'0 0.0
2016-Jan-31 16:23N 18°21' W 064°48'0 0.0
2016-Jan-31 15:33N 18°21' W 064°48'3 0.7
2016-Jan-31 11:20N 18°20' W 064°51'0 0.0
2016-Jan-31 10:32N 18°20' W 064°51'0 0.0
2016-Jan-31 09:32N 18°20' W 064°51'0 0.0
2016-Jan-31 08:32N 18°20' W 064°51'0 0.0
2016-Jan-31 05:32N 18°20' W 064°51'0 0.0
2016-Jan-31 04:20N 18°20' W 064°51'0 0.0
2016-Jan-31 03:32N 18°20' W 064°51'0 0.0
2016-Jan-31 02:32N 18°20' W 064°51'0 0.0
2016-Jan-31 01:20N 18°20' W 064°51'0 0.0
2016-Jan-31 00:20N 18°20' W 064°51'0 0.0
2016-Jan-30 23:26N 18°20' W 064°51'0 0.0
2016-Jan-30 22:08N 18°20' W 064°51'  

Dump ship's entire track history